Time;durP1;ratioP1;P1;durP2;ratioP2;P2;SDS_P1;SDS_P2;PMS_P1;PMS_P2;Temp;Humidity;BMP_temperature;BMP_pressure;BME280_temperature;BME280_humidity;BME280_pressure;Samples;Min_cycle;Max_cycle;Signal;HPM_P1;HPM_P2
2022/12/19 00:00:31;;;;;;;;;;;1.20;99.90;;;;;;5113669;28;19926;-40
2022/12/19 00:02:57;;;;;;;;;;;1.30;99.90;;;;;;5113405;28;19911;-38
2022/12/19 00:05:22;;;;;;;;;;;1.30;99.90;;;;;;5113353;28;19943;-40
2022/12/19 00:07:48;;;;;;;;;;;1.30;99.90;;;;;;5114071;28;20362;-41
2022/12/19 00:10:13;;;;;;;;;;;1.30;99.90;;;;;;5113909;28;20008;-41
2022/12/19 00:12:39;;;;;;;;;;;1.30;99.90;;;;;;5113016;28;19912;-41
2022/12/19 00:15:05;;;;;;;;;;;1.30;99.90;;;;;;5113734;28;20425;-41
2022/12/19 00:17:31;;;;;;;;;;;1.30;99.90;;;;;;5114142;28;19912;-40
2022/12/19 00:19:57;;;;;;;;;;;1.30;99.90;;;;;;5112904;27;19919;-40
2022/12/19 00:22:22;;;;;;;;;;;1.30;99.90;;;;;;5113650;28;19907;-39
2022/12/19 00:24:48;;;;;;;;;;;1.30;99.90;;;;;;5112818;28;19915;-40
2022/12/19 00:27:13;;;;;;;;;;;1.30;99.90;;;;;;5113895;28;19965;-40
2022/12/19 00:29:39;;;;;;;;;;;1.30;99.90;;;;;;5112753;28;20353;-39
2022/12/19 00:32:04;;;;;;;;;;;1.30;99.90;;;;;;5112659;28;19916;-41
2022/12/19 00:34:30;;;;;;;;;;;1.30;99.90;;;;;;5113643;28;19912;-39
2022/12/19 00:36:55;;;;;;;;;;;1.30;99.90;;;;;;5113352;28;19959;-39
2022/12/19 00:39:21;;;;;;;;;;;1.30;99.90;;;;;;5113029;28;20381;-39
2022/12/19 00:41:46;;;;;;;;;;;1.30;99.90;;;;;;5113205;28;19919;-40
2022/12/19 00:44:15;;;;;;;;;;;1.40;99.90;;;;;;5113100;28;20289;-41
2022/12/19 00:46:40;;;;;;;;;;;1.30;99.90;;;;;;5112377;28;20033;-40
2022/12/19 00:49:06;;;;;;;;;;;1.30;99.90;;;;;;5113399;28;19935;-40
2022/12/19 00:51:33;;;;;;;;;;;1.40;99.90;;;;;;5113370;28;19963;-40
2022/12/19 00:53:58;;;;;;;;;;;1.40;99.90;;;;;;5112455;28;19911;-40
2022/12/19 00:56:26;;;;;;;;;;;1.40;99.90;;;;;;5113395;28;20422;-39
2022/12/19 00:58:51;;;;;;;;;;;1.40;99.90;;;;;;5113203;28;19912;-41
2022/12/19 01:01:36;;;;;;;;;;;1.40;99.90;;;;;;5111201;28;19965;-40
2022/12/19 01:04:02;;;;;;;;;;;1.40;99.90;;;;;;5112770;28;19916;-40
2022/12/19 01:06:28;;;;;;;;;;;1.50;99.90;;;;;;5113068;28;19970;-41
2022/12/19 01:08:53;;;;;;;;;;;1.50;99.90;;;;;;5112171;28;20014;-40
2022/12/19 01:12:44;;;;;;;;;;;1.50;99.90;;;;;;5113112;28;19914;-40
2022/12/19 01:14:07;;;;;;;;;;;1.50;99.90;;;;;;5111743;28;19919;-40
2022/12/19 01:16:33;;;;;;;;;;;1.50;99.90;;;;;;5113356;28;20006;-41
2022/12/19 01:18:58;;;;;;;;;;;1.60;99.90;;;;;;5112911;28;19912;-38
2022/12/19 01:21:24;;;;;;;;;;;1.60;99.90;;;;;;5112083;28;20259;-40
2022/12/19 01:23:49;;;;;;;;;;;1.60;99.90;;;;;;5112485;28;19912;-39
2022/12/19 01:26:15;;;;;;;;;;;1.60;99.90;;;;;;5097520;28;20045;-40
2022/12/19 01:28:40;;;;;;;;;;;1.60;99.90;;;;;;5106451;28;19912;-39
2022/12/19 01:31:06;;;;;;;;;;;1.60;99.90;;;;;;5112482;28;19969;-39
2022/12/19 01:33:31;;;;;;;;;;;1.70;99.90;;;;;;5109384;28;20385;-41
2022/12/19 01:35:57;;;;;;;;;;;1.60;99.90;;;;;;5101292;28;19912;-39
2022/12/19 01:38:22;;;;;;;;;;;1.70;99.90;;;;;;5104173;28;20266;-40
2022/12/19 01:40:55;;;;;;;;;;;1.70;99.90;;;;;;5112843;28;19969;-39
2022/12/19 01:43:21;;;;;;;;;;;1.70;99.90;;;;;;5115395;28;20265;-40
2022/12/19 01:45:48;;;;;;;;;;;1.70;99.90;;;;;;5117135;28;19991;-40
2022/12/19 01:48:34;;;;;;;;;;;1.70;99.90;;;;;;5116284;28;20007;-41
2022/12/19 01:51:12;;;;;;;;;;;1.70;99.90;;;;;;5109995;28;20500;-39
2022/12/19 01:53:42;;;;;;;;;;;1.80;99.90;;;;;;5110573;28;19918;-40
2022/12/19 01:56:09;;;;;;;;;;;1.80;99.90;;;;;;5115693;28;20011;-39
2022/12/19 01:58:35;;;;;;;;;;;1.80;99.90;;;;;;5116755;28;19912;-39
2022/12/19 02:01:01;;;;;;;;;;;1.80;99.90;;;;;;5115822;28;19919;-40
2022/12/19 02:03:27;;;;;;;;;;;1.80;99.90;;;;;;5115473;28;19920;-40
2022/12/19 02:05:53;;;;;;;;;;;1.90;99.90;;;;;;5116192;28;20472;-39
2022/12/19 02:08:20;;;;;;;;;;;1.90;99.90;;;;;;5116224;28;19950;-41
2022/12/19 02:10:45;;;;;;;;;;;1.90;99.90;;;;;;5115575;27;20377;-40
2022/12/19 02:13:11;;;;;;;;;;;1.90;99.90;;;;;;5110731;28;20007;-40
2022/12/19 02:15:49;;;;;;;;;;;1.90;99.90;;;;;;5116319;28;19918;-39
2022/12/19 02:18:14;;;;;;;;;;;1.90;99.90;;;;;;5115472;27;19911;-40
2022/12/19 02:20:55;;;;;;;;;;;1.90;99.90;;;;;;5116238;28;20396;-41
2022/12/19 02:23:40;;;;;;;;;;;1.90;99.90;;;;;;5114677;28;20251;-39
2022/12/19 02:26:24;;;;;;;;;;;1.90;99.90;;;;;;5115223;28;19912;-38
2022/12/19 02:28:58;;;;;;;;;;;2.00;99.90;;;;;;5116109;28;19920;-40
2022/12/19 02:31:29;;;;;;;;;;;2.00;99.90;;;;;;5114859;28;20370;-43
2022/12/19 02:33:55;;;;;;;;;;;2.00;99.90;;;;;;5116049;27;19957;-39
2022/12/19 02:36:24;;;;;;;;;;;2.00;99.90;;;;;;5115764;27;19911;-40
2022/12/19 02:38:56;;;;;;;;;;;2.00;99.90;;;;;;5115355;28;19912;-40
2022/12/19 02:41:28;;;;;;;;;;;2.00;99.90;;;;;;5115505;28;19938;-40
2022/12/19 02:43:55;;;;;;;;;;;2.00;99.90;;;;;;5115713;28;19922;-39
2022/12/19 02:46:21;;;;;;;;;;;1.90;99.90;;;;;;5114729;28;20288;-39
2022/12/19 02:48:47;;;;;;;;;;;1.90;99.90;;;;;;5115385;28;19911;-40
2022/12/19 02:51:12;;;;;;;;;;;1.90;99.90;;;;;;5115616;28;19936;-40
2022/12/19 02:53:38;;;;;;;;;;;1.90;99.90;;;;;;5114100;28;19972;-38
2022/12/19 02:56:07;;;;;;;;;;;1.90;99.90;;;;;;5115544;28;20449;-42
2022/12/19 02:58:55;;;;;;;;;;;1.90;99.90;;;;;;5115329;28;19935;-41
2022/12/19 03:01:37;;;;;;;;;;;1.90;99.90;;;;;;5101994;28;20449;-40
2022/12/19 03:04:30;;;;;;;;;;;1.90;99.90;;;;;;5115380;28;19911;-41
2022/12/19 03:07:18;;;;;;;;;;;1.90;99.90;;;;;;5114319;28;19919;-40
2022/12/19 03:09:48;;;;;;;;;;;1.90;99.90;;;;;;5115099;28;20002;-38
2022/12/19 03:12:18;;;;;;;;;;;2.00;99.90;;;;;;5114641;28;19928;-39
2022/12/19 03:14:45;;;;;;;;;;;2.00;99.90;;;;;;5114199;28;20441;-39
2022/12/19 03:17:10;;;;;;;;;;;2.00;99.90;;;;;;5114830;28;19934;-40
2022/12/19 03:19:37;;;;;;;;;;;2.00;99.90;;;;;;5115016;28;20270;-39
2022/12/19 03:22:03;;;;;;;;;;;2.00;99.90;;;;;;5114277;27;19912;-41
2022/12/19 03:24:28;;;;;;;;;;;2.00;99.90;;;;;;5115103;28;20003;-40
2022/12/19 03:26:54;;;;;;;;;;;2.00;99.90;;;;;;5115276;28;19908;-41
2022/12/19 03:29:31;;;;;;;;;;;2.10;99.90;;;;;;5114135;28;19911;-40
2022/12/19 03:31:58;;;;;;;;;;;2.10;99.90;;;;;;5114616;28;19920;-39
2022/12/19 03:34:27;;;;;;;;;;;2.10;99.90;;;;;;5114524;28;19912;-40
2022/12/19 03:36:55;;;;;;;;;;;2.10;99.90;;;;;;5114294;27;20041;-39
2022/12/19 03:39:21;;;;;;;;;;;2.10;99.90;;;;;;5114319;28;19972;-40
2022/12/19 03:44:35;;;;;;;;;;;2.10;99.90;;;;;;5114583;28;19986;-41
2022/12/19 03:47:04;;;;;;;;;;;2.20;99.90;;;;;;5114270;28;19912;-40
2022/12/19 03:49:30;;;;;;;;;;;2.20;99.90;;;;;;5113784;28;19908;-41
2022/12/19 03:52:01;;;;;;;;;;;2.20;99.90;;;;;;5114236;28;20293;-42
2022/12/19 03:54:28;;;;;;;;;;;2.20;99.90;;;;;;5094125;28;19919;-41
2022/12/19 03:57:08;;;;;;;;;;;2.20;99.90;;;;;;5093451;28;19979;-38
2022/12/19 03:59:34;;;;;;;;;;;2.30;99.90;;;;;;5098831;28;19912;-41
2022/12/19 04:02:00;;;;;;;;;;;2.30;99.90;;;;;;5113661;28;19933;-42
2022/12/19 04:04:26;;;;;;;;;;;2.40;99.90;;;;;;5112498;28;20298;-40
2022/12/19 04:06:52;;;;;;;;;;;2.40;99.90;;;;;;5114385;28;19912;-41
2022/12/19 04:09:19;;;;;;;;;;;2.40;99.90;;;;;;5113501;28;19962;-40
2022/12/19 04:11:48;;;;;;;;;;;2.50;99.90;;;;;;5112754;28;20010;-39
2022/12/19 04:14:15;;;;;;;;;;;2.50;99.90;;;;;;5113751;28;20385;-41
2022/12/19 04:16:44;;;;;;;;;;;2.50;99.90;;;;;;5113734;28;19937;-39
2022/12/19 04:19:15;;;;;;;;;;;2.60;99.90;;;;;;5113239;28;19912;-38
2022/12/19 04:21:44;;;;;;;;;;;2.60;99.90;;;;;;5114000;28;19985;-39
2022/12/19 04:24:12;;;;;;;;;;;2.60;99.90;;;;;;5112834;28;20215;-41
2022/12/19 04:26:39;;;;;;;;;;;2.70;99.90;;;;;;5113901;28;19911;-40
2022/12/19 04:29:05;;;;;;;;;;;2.70;99.90;;;;;;5113643;28;19912;-38
2022/12/19 04:31:30;;;;;;;;;;;2.70;99.90;;;;;;5112141;28;19920;-40
2022/12/19 04:33:56;;;;;;;;;;;2.80;99.90;;;;;;5113346;28;19919;-42
2022/12/19 04:36:22;;;;;;;;;;;2.90;99.90;;;;;;5113476;28;20370;-41
2022/12/19 04:38:47;;;;;;;;;;;2.90;99.90;;;;;;5112659;28;19919;-39
2022/12/19 04:41:12;;;;;;;;;;;3.00;99.90;;;;;;5113457;28;19928;-40
2022/12/19 04:43:38;;;;;;;;;;;3.00;99.90;;;;;;5113143;28;19918;-41
2022/12/19 04:46:03;;;;;;;;;;;3.00;99.90;;;;;;5112643;28;20329;-39
2022/12/19 04:48:29;;;;;;;;;;;3.10;99.90;;;;;;5112981;28;19915;-39
2022/12/19 04:50:55;;;;;;;;;;;3.10;99.90;;;;;;5113010;28;20277;-39
2022/12/19 04:53:20;;;;;;;;;;;3.10;99.90;;;;;;5112181;28;20389;-41
2022/12/19 04:55:46;;;;;;;;;;;3.20;99.90;;;;;;5113195;28;19912;-38
2022/12/19 04:58:11;;;;;;;;;;;3.20;99.90;;;;;;5113185;28;19918;-41
2022/12/19 05:00:37;;;;;;;;;;;3.20;99.90;;;;;;5112284;28;19920;-41
2022/12/19 05:03:03;;;;;;;;;;;3.20;99.90;;;;;;5113117;28;19908;-41
2022/12/19 05:05:28;;;;;;;;;;;3.30;99.90;;;;;;5113099;28;20003;-40
2022/12/19 05:07:54;;;;;;;;;;;3.30;99.90;;;;;;5112376;28;19907;-39
2022/12/19 05:10:19;;;;;;;;;;;3.30;99.90;;;;;;5113182;28;19911;-38
2022/12/19 05:12:45;;;;;;;;;;;3.30;99.90;;;;;;5113045;28;20011;-39
2022/12/19 05:15:10;;;;;;;;;;;3.30;99.90;;;;;;5111227;28;19908;-40
2022/12/19 05:17:36;;;;;;;;;;;3.30;99.90;;;;;;5113362;28;19947;-38
2022/12/19 05:20:02;;;;;;;;;;;3.30;99.90;;;;;;5112718;28;20369;-44
2022/12/19 05:22:28;;;;;;;;;;;3.30;99.90;;;;;;5112434;28;20340;-38
2022/12/19 05:24:53;;;;;;;;;;;3.30;99.90;;;;;;5112857;28;19957;-40
2022/12/19 05:27:18;;;;;;;;;;;3.40;99.90;;;;;;5112378;28;20366;-40
2022/12/19 05:29:44;;;;;;;;;;;3.40;99.90;;;;;;5105546;28;19916;-39
2022/12/19 05:32:09;;;;;;;;;;;3.40;99.90;;;;;;5094032;28;19912;-39
2022/12/19 05:34:35;;;;;;;;;;;3.40;99.90;;;;;;5112077;28;19995;-40
2022/12/19 05:37:02;;;;;;;;;;;3.50;99.90;;;;;;5112771;28;19915;-41
2022/12/19 05:39:28;;;;;;;;;;;3.50;99.90;;;;;;5112658;28;19911;-40
2022/12/19 05:41:53;;;;;;;;;;;3.50;99.90;;;;;;5107344;28;19965;-40
2022/12/19 05:44:19;;;;;;;;;;;3.60;99.90;;;;;;5110270;28;19912;-40
2022/12/19 05:46:44;;;;;;;;;;;3.60;99.90;;;;;;5112490;28;19912;-41
2022/12/19 05:49:10;;;;;;;;;;;3.70;99.90;;;;;;5111625;28;19951;-39
2022/12/19 05:51:35;;;;;;;;;;;3.60;99.90;;;;;;5112854;28;19907;-38
2022/12/19 05:54:01;;;;;;;;;;;3.70;99.90;;;;;;5112375;28;19916;-41
2022/12/19 05:56:26;;;;;;;;;;;3.70;99.90;;;;;;5111739;28;20333;-41
2022/12/19 05:58:53;;;;;;;;;;;3.80;99.90;;;;;;5112466;28;19912;-40
2022/12/19 06:01:18;;;;;;;;;;;3.80;99.90;;;;;;5112156;28;20014;-40
2022/12/19 06:03:44;;;;;;;;;;;3.80;99.90;;;;;;5112111;28;20041;-39
2022/12/19 06:06:11;;;;;;;;;;;3.90;99.90;;;;;;5112423;28;19915;-41
2022/12/19 06:08:37;;;;;;;;;;;3.90;99.90;;;;;;5111682;28;19911;-40
2022/12/19 06:11:03;;;;;;;;;;;3.90;99.90;;;;;;5111831;28;19912;-41
2022/12/19 06:13:29;;;;;;;;;;;4.10;99.90;;;;;;5112252;28;19912;-40
2022/12/19 06:15:58;;;;;;;;;;;4.10;99.90;;;;;;5101680;28;20010;-41
2022/12/19 06:18:25;;;;;;;;;;;4.10;99.90;;;;;;5111744;28;19955;-39
2022/12/19 06:20:57;;;;;;;;;;;4.10;99.90;;;;;;5112584;28;19916;-39
2022/12/19 06:23:23;;;;;;;;;;;4.20;99.90;;;;;;5111457;28;19970;-41
2022/12/19 06:25:48;;;;;;;;;;;4.20;99.90;;;;;;5112146;28;20322;-39
2022/12/19 06:28:14;;;;;;;;;;;4.30;99.90;;;;;;5113783;28;20281;-41
2022/12/19 06:30:39;;;;;;;;;;;4.30;99.90;;;;;;5114960;28;19924;-39
2022/12/19 06:33:05;;;;;;;;;;;4.40;99.90;;;;;;5115557;28;19912;-41
2022/12/19 06:35:30;;;;;;;;;;;4.40;99.90;;;;;;5115986;28;20269;-39
2022/12/19 06:37:56;;;;;;;;;;;4.40;99.90;;;;;;5115322;28;19994;-40
2022/12/19 06:43:05;;;;;;;;;;;4.40;99.90;;;;;;5115490;28;20334;-41
2022/12/19 06:45:31;;;;;;;;;;;4.40;99.90;;;;;;5114882;27;20421;-42
2022/12/19 06:47:56;;;;;;;;;;;4.50;99.90;;;;;;5114570;28;19935;-41
2022/12/19 06:50:22;;;;;;;;;;;4.50;99.90;;;;;;5114659;28;19936;-39
2022/12/19 06:52:47;;;;;;;;;;;4.50;99.90;;;;;;5105566;28;19919;-40
2022/12/19 06:55:13;;;;;;;;;;;4.50;99.90;;;;;;5102026;27;19938;-40
2022/12/19 06:57:44;;;;;;;;;;;4.50;99.90;;;;;;5102173;28;20004;-39
2022/12/19 07:00:12;;;;;;;;;;;4.50;99.90;;;;;;5109671;28;19926;-40
2022/12/19 07:02:39;;;;;;;;;;;4.50;99.90;;;;;;5109338;28;19951;-39
2022/12/19 07:05:05;;;;;;;;;;;4.60;99.90;;;;;;5112674;28;19916;-37
2022/12/19 07:07:31;;;;;;;;;;;4.60;99.90;;;;;;5106022;27;19912;-40
2022/12/19 07:09:57;;;;;;;;;;;4.60;99.90;;;;;;5113590;28;19916;-41
2022/12/19 07:12:22;;;;;;;;;;;4.70;99.90;;;;;;5112420;28;19965;-39
2022/12/19 07:14:47;;;;;;;;;;;4.70;99.90;;;;;;5107538;28;19916;-38
2022/12/19 07:17:13;;;;;;;;;;;4.70;99.90;;;;;;5110465;28;19997;-40
2022/12/19 07:19:39;;;;;;;;;;;4.70;99.90;;;;;;5109957;28;19915;-42
2022/12/19 07:22:05;;;;;;;;;;;4.70;99.90;;;;;;5113788;28;19916;-40
2022/12/19 07:24:31;;;;;;;;;;;4.80;99.90;;;;;;5113431;28;20002;-39
2022/12/19 07:26:57;;;;;;;;;;;4.70;99.90;;;;;;5112906;27;20023;-41
2022/12/19 07:29:22;;;;;;;;;;;4.80;99.90;;;;;;5112574;27;19915;-40
2022/12/19 07:31:48;;;;;;;;;;;4.80;99.90;;;;;;5111692;28;19926;-41
2022/12/19 07:34:13;;;;;;;;;;;4.80;99.90;;;;;;5112811;28;19958;-39
2022/12/19 07:36:38;;;;;;;;;;;4.80;99.90;;;;;;5113679;28;20285;-39
2022/12/19 07:39:04;;;;;;;;;;;4.80;99.90;;;;;;5112277;28;20323;-40
2022/12/19 07:41:29;;;;;;;;;;;4.80;99.90;;;;;;5112611;28;19919;-39
2022/12/19 07:43:55;;;;;;;;;;;4.80;99.90;;;;;;5105422;28;19919;-38
2022/12/19 07:46:20;;;;;;;;;;;4.80;99.90;;;;;;5107671;28;19908;-41
2022/12/19 07:48:46;;;;;;;;;;;4.90;99.90;;;;;;5093391;28;20158;-41
2022/12/19 07:51:11;;;;;;;;;;;4.80;99.90;;;;;;5094235;28;19919;-38
2022/12/19 07:53:37;;;;;;;;;;;4.90;99.90;;;;;;5100396;28;20006;-40
2022/12/19 07:56:02;;;;;;;;;;;4.90;99.90;;;;;;5113547;28;19907;-40
2022/12/19 07:58:28;;;;;;;;;;;4.90;99.90;;;;;;5114112;28;20434;-41
2022/12/19 08:00:55;;;;;;;;;;;4.90;99.90;;;;;;5114229;28;19920;-38
2022/12/19 08:03:20;;;;;;;;;;;4.90;99.90;;;;;;5113660;27;19908;-41
2022/12/19 08:05:46;;;;;;;;;;;5.00;99.90;;;;;;5114095;28;19931;-40
2022/12/19 08:08:11;;;;;;;;;;;5.00;99.90;;;;;;5113356;28;19916;-39
2022/12/19 08:10:37;;;;;;;;;;;5.00;99.90;;;;;;5110537;28;20357;-39
2022/12/19 08:13:02;;;;;;;;;;;5.00;99.90;;;;;;5113540;27;20049;-40
2022/12/19 08:15:28;;;;;;;;;;;5.00;99.90;;;;;;5113354;28;19908;-40
2022/12/19 08:17:53;;;;;;;;;;;5.10;99.90;;;;;;5111775;28;19915;-40
2022/12/19 08:20:19;;;;;;;;;;;5.10;99.90;;;;;;5113348;28;20391;-40
2022/12/19 08:22:44;;;;;;;;;;;5.20;99.90;;;;;;5113351;28;20408;-40
2022/12/19 08:25:10;;;;;;;;;;;5.20;99.90;;;;;;5109441;28;19919;-39
2022/12/19 08:27:35;;;;;;;;;;;5.20;99.90;;;;;;5113425;28;19907;-41
2022/12/19 08:30:01;;;;;;;;;;;5.30;99.90;;;;;;5111739;28;19943;-39
2022/12/19 08:32:28;;;;;;;;;;;5.40;99.90;;;;;;5112905;28;20412;-40
2022/12/19 08:34:55;;;;;;;;;;;5.40;99.90;;;;;;5113332;28;20054;-40
2022/12/19 08:37:21;;;;;;;;;;;5.40;99.90;;;;;;5112469;28;19912;-41
2022/12/19 08:39:46;;;;;;;;;;;5.40;99.90;;;;;;5112966;28;19928;-39
2022/12/19 08:42:12;;;;;;;;;;;5.50;99.90;;;;;;5113118;28;19908;-40
2022/12/19 08:44:38;;;;;;;;;;;5.50;99.90;;;;;;5112605;28;19915;-41
2022/12/19 08:47:03;;;;;;;;;;;5.50;99.90;;;;;;5113079;28;20318;-40
2022/12/19 08:49:29;;;;;;;;;;;5.60;99.90;;;;;;5112951;28;19915;-39
2022/12/19 08:51:54;;;;;;;;;;;5.60;99.90;;;;;;5111803;28;19908;-39
2022/12/19 08:54:20;;;;;;;;;;;5.60;99.90;;;;;;5112281;28;19981;-40
2022/12/19 08:56:45;;;;;;;;;;;5.60;99.90;;;;;;5112066;28;19912;-39
2022/12/19 08:59:11;;;;;;;;;;;5.60;99.90;;;;;;5110904;28;20319;-40
2022/12/19 09:01:36;;;;;;;;;;;5.70;99.90;;;;;;5111666;28;20254;-39
2022/12/19 09:04:01;;;;;;;;;;;5.80;99.90;;;;;;5111538;28;19915;-39
2022/12/19 09:06:27;;;;;;;;;;;5.80;99.90;;;;;;5110624;28;20027;-40
2022/12/19 09:08:52;;;;;;;;;;;5.80;99.90;;;;;;5111897;28;19908;-38
2022/12/19 09:11:19;;;;;;;;;;;5.80;99.90;;;;;;5111929;28;20373;-39
2022/12/19 09:13:45;;;;;;;;;;;5.90;99.90;;;;;;5110929;28;19912;-40
2022/12/19 09:16:15;;;;;;;;;;;5.90;99.90;;;;;;5107164;28;19919;-39
2022/12/19 09:18:42;;;;;;;;;;;6.00;99.90;;;;;;5102387;28;20359;-39
2022/12/19 09:21:08;;;;;;;;;;;6.00;99.90;;;;;;5091972;28;19917;-39
2022/12/19 09:23:34;;;;;;;;;;;6.00;99.90;;;;;;5107580;28;19907;-38
2022/12/19 09:26:04;;;;;;;;;;;6.00;99.90;;;;;;5113103;28;19999;-39
2022/12/19 09:28:29;;;;;;;;;;;6.10;99.90;;;;;;5113454;28;19908;-39
2022/12/19 09:30:56;;;;;;;;;;;6.10;99.90;;;;;;5104416;28;19920;-38
2022/12/19 09:33:21;;;;;;;;;;;6.20;99.90;;;;;;5100330;28;19908;-40
2022/12/19 09:35:51;;;;;;;;;;;6.20;99.90;;;;;;5096928;28;19912;-38
2022/12/19 09:38:16;;;;;;;;;;;6.30;99.90;;;;;;5097531;28;20339;-41
2022/12/19 09:40:53;;;;;;;;;;;6.30;99.90;;;;;;5092955;28;19938;-39
2022/12/19 09:43:42;;;;;;;;;;;6.30;99.90;;;;;;5093322;28;19908;-40
2022/12/19 09:46:23;;;;;;;;;;;6.40;99.90;;;;;;5072811;28;19908;-41
2022/12/19 09:48:52;;;;;;;;;;;6.40;99.90;;;;;;5092794;28;19909;-41
2022/12/19 09:51:33;;;;;;;;;;;6.50;99.90;;;;;;5093090;28;19912;-39
2022/12/19 09:54:04;;;;;;;;;;;6.50;99.90;;;;;;5092882;28;19908;-39
2022/12/19 09:56:32;;;;;;;;;;;6.50;99.90;;;;;;5107424;28;20317;-39
2022/12/19 09:59:01;;;;;;;;;;;6.50;99.90;;;;;;5113038;28;19911;-41
2022/12/19 10:01:30;;;;;;;;;;;6.60;99.90;;;;;;5113026;28;19919;-39
2022/12/19 10:04:02;;;;;;;;;;;6.60;99.90;;;;;;5116392;28;19908;-39
2022/12/19 10:06:28;;;;;;;;;;;6.70;99.90;;;;;;5116769;28;20369;-41
2022/12/19 10:08:53;;;;;;;;;;;6.70;99.90;;;;;;5115912;28;19915;-40
2022/12/19 10:11:19;;;;;;;;;;;6.80;99.90;;;;;;5116894;28;20316;-40
2022/12/19 10:13:54;;;;;;;;;;;6.80;99.90;;;;;;5117511;28;19932;-41
2022/12/19 10:16:22;;;;;;;;;;;6.80;99.90;;;;;;5116347;28;19912;-39
2022/12/19 10:18:53;;;;;;;;;;;6.80;99.90;;;;;;5107224;28;20373;-40
2022/12/19 10:21:29;;;;;;;;;;;6.80;99.90;;;;;;5096280;28;19920;-40
2022/12/19 10:24:15;;;;;;;;;;;6.80;99.90;;;;;;5096199;28;20332;-40
2022/12/19 10:26:47;;;;;;;;;;;6.80;99.90;;;;;;5098745;28;19912;-38
2022/12/19 10:29:19;;;;;;;;;;;6.90;99.90;;;;;;5096601;28;19912;-41
2022/12/19 10:31:53;;;;;;;;;;;6.90;99.90;;;;;;5095530;28;19924;-40
2022/12/19 10:34:23;;;;;;;;;;;6.90;99.90;;;;;;5097875;28;19944;-39
2022/12/19 10:36:51;;;;;;;;;;;7.00;99.90;;;;;;5116500;28;19907;-41
2022/12/19 10:39:22;;;;;;;;;;;7.00;99.90;;;;;;5116892;28;19908;-38
2022/12/19 10:41:51;;;;;;;;;;;7.00;99.90;;;;;;5101838;28;19955;-41
2022/12/19 10:44:17;;;;;;;;;;;7.00;99.90;;;;;;5094984;28;19908;-40
2022/12/19 10:46:47;;;;;;;;;;;7.00;99.90;;;;;;5099307;28;20362;-39
2022/12/19 10:49:17;;;;;;;;;;;7.00;99.90;;;;;;5096726;28;19999;-39
2022/12/19 10:51:55;;;;;;;;;;;7.00;99.90;;;;;;5095627;28;19908;-42
2022/12/19 10:54:21;;;;;;;;;;;7.00;99.90;;;;;;5111495;28;20266;-39
2022/12/19 10:56:47;;;;;;;;;;;7.10;99.90;;;;;;5096457;28;19915;-42
2022/12/19 10:59:17;;;;;;;;;;;7.10;99.90;;;;;;5095409;28;20413;-39
2022/12/19 11:01:43;;;;;;;;;;;7.10;99.90;;;;;;5095582;28;19924;-39
2022/12/19 11:04:12;;;;;;;;;;;7.10;99.90;;;;;;5095791;28;19908;-41
2022/12/19 11:06:47;;;;;;;;;;;7.20;99.90;;;;;;5103212;28;20368;-41
2022/12/19 11:09:23;;;;;;;;;;;7.20;99.90;;;;;;5116185;28;20362;-40
2022/12/19 11:11:57;;;;;;;;;;;7.20;99.90;;;;;;5115670;28;19908;-39
2022/12/19 11:14:30;;;;;;;;;;;7.20;99.90;;;;;;5115887;28;19947;-40
2022/12/19 11:16:55;;;;;;;;;;;7.30;99.90;;;;;;5116030;28;19912;-40
2022/12/19 11:19:24;;;;;;;;;;;7.30;99.90;;;;;;5115635;28;19968;-40
2022/12/19 11:21:49;;;;;;;;;;;7.30;99.90;;;;;;5115623;28;20342;-40
2022/12/19 11:24:22;;;;;;;;;;;7.30;99.90;;;;;;5115568;28;19908;-40
2022/12/19 11:26:48;;;;;;;;;;;7.30;99.90;;;;;;5115529;28;19954;-41
2022/12/19 11:29:17;;;;;;;;;;;7.30;99.90;;;;;;5115808;28;20258;-41
2022/12/19 11:31:43;;;;;;;;;;;7.40;99.90;;;;;;5115648;28;20397;-39
2022/12/19 11:34:12;;;;;;;;;;;7.40;99.90;;;;;;5115276;28;19908;-40
2022/12/19 11:36:42;;;;;;;;;;;7.40;99.90;;;;;;5115162;28;20285;-41
2022/12/19 11:39:14;;;;;;;;;;;7.40;99.90;;;;;;5115653;28;19914;-41
2022/12/19 11:41:48;;;;;;;;;;;7.40;99.90;;;;;;5115248;28;19916;-38
2022/12/19 11:44:13;;;;;;;;;;;7.50;99.90;;;;;;5115641;28;19965;-39
2022/12/19 11:47:02;;;;;;;;;;;7.50;99.90;;;;;;5115284;28;19912;-40
2022/12/19 11:49:30;;;;;;;;;;;7.50;99.90;;;;;;5104911;28;20427;-40
2022/12/19 11:52:14;;;;;;;;;;;7.50;99.90;;;;;;5115069;28;19915;-40
2022/12/19 11:54:54;;;;;;;;;;;7.50;99.90;;;;;;5114866;28;19908;-40
2022/12/19 11:57:20;;;;;;;;;;;7.60;99.90;;;;;;5115349;28;19942;-42
2022/12/19 11:59:45;;;;;;;;;;;7.60;99.90;;;;;;5115010;28;19912;-42
2022/12/19 12:02:31;;;;;;;;;;;7.60;99.90;;;;;;5114058;28;19916;-39
2022/12/19 12:04:56;;;;;;;;;;;7.60;99.90;;;;;;5114429;28;19958;-39
2022/12/19 12:07:22;;;;;;;;;;;7.60;99.90;;;;;;5114304;28;20278;-40
2022/12/19 12:09:51;;;;;;;;;;;7.60;99.90;;;;;;5113677;27;20285;-41
2022/12/19 12:12:31;;;;;;;;;;;7.70;99.90;;;;;;5114324;28;19915;-40
2022/12/19 12:15:00;;;;;;;;;;;7.70;99.90;;;;;;5114357;28;19915;-38
2022/12/19 12:17:33;;;;;;;;;;;7.70;99.90;;;;;;5113947;28;19907;-40
2022/12/19 12:20:08;;;;;;;;;;;7.70;99.90;;;;;;5114179;28;19962;-39
2022/12/19 12:22:47;;;;;;;;;;;7.70;99.90;;;;;;5113416;28;20274;-40
2022/12/19 12:25:26;;;;;;;;;;;7.70;99.90;;;;;;5113347;28;19935;-40
2022/12/19 12:28:10;;;;;;;;;;;7.80;99.90;;;;;;5114683;28;19911;-39
2022/12/19 12:30:59;;;;;;;;;;;7.80;99.90;;;;;;5099460;28;19920;-39
2022/12/19 12:33:39;;;;;;;;;;;7.80;99.90;;;;;;5087792;28;19908;-40
2022/12/19 12:36:13;;;;;;;;;;;7.90;99.90;;;;;;5094131;28;19916;-42
2022/12/19 12:38:41;;;;;;;;;;;7.90;99.90;;;;;;5098604;28;19920;-40
2022/12/19 12:41:09;;;;;;;;;;;7.90;99.90;;;;;;5093933;28;20885;-40
2022/12/19 12:43:54;;;;;;;;;;;7.90;99.90;;;;;;5097919;28;20423;-42
2022/12/19 12:46:22;;;;;;;;;;;8.00;99.90;;;;;;5101426;28;19916;-43
2022/12/19 12:48:55;;;;;;;;;;;8.00;99.90;;;;;;5110017;28;19955;-41
2022/12/19 12:51:21;;;;;;;;;;;8.00;99.90;;;;;;5103863;28;19923;-40
2022/12/19 12:53:47;;;;;;;;;;;8.00;99.90;;;;;;5112042;28;19907;-40
2022/12/19 12:56:15;;;;;;;;;;;8.10;99.90;;;;;;5112921;28;19967;-39
2022/12/19 12:58:52;;;;;;;;;;;8.00;99.90;;;;;;5112146;28;20339;-41
2022/12/19 13:01:24;;;;;;;;;;;8.00;99.90;;;;;;5107450;28;19920;-40
2022/12/19 13:03:51;;;;;;;;;;;8.10;99.90;;;;;;5112465;28;19932;-43
2022/12/19 13:06:24;;;;;;;;;;;8.00;99.90;;;;;;5106975;28;19912;-40
2022/12/19 13:08:52;;;;;;;;;;;8.10;99.90;;;;;;5106086;28;19958;-41
2022/12/19 13:14:02;;;;;;;;;;;8.10;99.90;;;;;;5092910;28;19950;-39
2022/12/19 13:16:43;;;;;;;;;;;8.10;99.90;;;;;;5100702;28;20323;-41
2022/12/19 13:19:16;;;;;;;;;;;8.10;99.90;;;;;;5095901;28;19908;-41
2022/12/19 13:22:00;;;;;;;;;;;8.10;99.90;;;;;;5113269;28;19916;-42
2022/12/19 13:24:36;;;;;;;;;;;8.20;99.90;;;;;;5112928;28;19908;-39
2022/12/19 13:27:01;;;;;;;;;;;8.20;99.90;;;;;;5112307;28;19908;-39
2022/12/19 13:29:29;;;;;;;;;;;8.20;99.90;;;;;;5113236;28;19912;-40
2022/12/19 13:32:07;;;;;;;;;;;8.20;99.90;;;;;;5112863;28;20006;-41
2022/12/19 13:34:35;;;;;;;;;;;8.20;99.90;;;;;;5112314;28;20003;-40
2022/12/19 13:37:06;;;;;;;;;;;8.20;99.90;;;;;;5114866;28;19914;-41
2022/12/19 13:39:33;;;;;;;;;;;8.20;99.90;;;;;;5116491;28;19912;-41
2022/12/19 13:45:08;;;;;;;;;;;8.20;99.90;;;;;;5116800;28;19962;-40
2022/12/19 13:47:37;;;;;;;;;;;8.20;99.90;;;;;;5098906;28;20006;-41
2022/12/19 13:50:05;;;;;;;;;;;8.20;99.90;;;;;;5096925;28;19912;-39
2022/12/19 13:52:30;;;;;;;;;;;8.30;99.90;;;;;;5096752;28;19915;-41
2022/12/19 13:54:58;;;;;;;;;;;8.30;99.90;;;;;;5104940;28;19967;-39
2022/12/19 13:57:28;;;;;;;;;;;8.30;99.90;;;;;;5117047;28;19999;-40
2022/12/19 13:59:56;;;;;;;;;;;8.30;99.90;;;;;;5116763;28;19908;-39
2022/12/19 14:02:29;;;;;;;;;;;8.30;99.90;;;;;;5115362;28;19915;-40
2022/12/19 14:04:55;;;;;;;;;;;8.30;99.90;;;;;;5116880;28;19908;-39
2022/12/19 14:07:38;;;;;;;;;;;8.40;99.90;;;;;;5116719;28;19908;-40
2022/12/19 14:10:13;;;;;;;;;;;8.40;99.90;;;;;;5116662;28;19908;-43
2022/12/19 14:15:30;;;;;;;;;;;8.40;99.90;;;;;;5116086;28;19914;-40
2022/12/19 14:17:58;;;;;;;;;;;8.30;99.90;;;;;;5116587;28;20413;-42
2022/12/19 14:20:24;;;;;;;;;;;8.30;99.90;;;;;;5116703;28;19935;-40
2022/12/19 14:22:55;;;;;;;;;;;8.30;99.90;;;;;;5115701;28;20362;-39
2022/12/19 14:25:20;;;;;;;;;;;8.30;99.90;;;;;;5115412;28;19935;-41
2022/12/19 14:27:51;;;;;;;;;;;8.30;99.90;;;;;;5116460;28;20350;-41
2022/12/19 14:30:20;;;;;;;;;;;8.30;99.90;;;;;;5115094;28;19920;-40
2022/12/19 14:32:47;;;;;;;;;;;8.30;99.90;;;;;;5112340;28;19908;-40
2022/12/19 14:35:15;;;;;;;;;;;8.30;99.90;;;;;;5095837;28;19919;-40
2022/12/19 14:37:42;;;;;;;;;;;8.30;99.90;;;;;;5094969;28;19939;-41
2022/12/19 14:40:20;;;;;;;;;;;8.30;99.90;;;;;;5095648;28;19935;-40
2022/12/19 14:45:40;;;;;;;;;;;8.30;99.90;;;;;;5095939;28;20362;-40
2022/12/19 14:48:24;;;;;;;;;;;8.30;99.90;;;;;;5094582;28;19942;-42
2022/12/19 14:50:49;;;;;;;;;;;8.30;99.90;;;;;;5094794;28;20375;-39
2022/12/19 14:53:16;;;;;;;;;;;8.30;99.90;;;;;;5095132;28;19920;-40
2022/12/19 14:55:45;;;;;;;;;;;8.30;99.90;;;;;;5101725;28;19954;-43